createdAt,value
2018-09-28T00:01:24.117Z,10.60
2018-09-28T00:03:54.244Z,10.60
2018-09-28T00:06:22.616Z,10.60
2018-09-28T00:08:51.380Z,10.50
2018-09-28T00:11:19.986Z,10.50
2018-09-28T00:13:48.565Z,10.40
2018-09-28T00:16:17.465Z,10.40
2018-09-28T00:18:46.001Z,10.40
2018-09-28T00:21:14.850Z,10.40
2018-09-28T00:23:43.601Z,10.40
2018-09-28T00:26:11.921Z,10.40
2018-09-28T00:28:40.385Z,10.40
2018-09-28T00:31:08.671Z,10.40
2018-09-28T00:33:36.999Z,10.40
2018-09-28T00:36:05.922Z,10.30
2018-09-28T00:38:34.280Z,10.20
2018-09-28T00:41:02.556Z,10.30
2018-09-28T00:43:31.016Z,10.20
2018-09-28T00:45:59.320Z,10.30
2018-09-28T00:48:27.834Z,10.30
2018-09-28T00:50:56.331Z,10.30
2018-09-28T00:53:24.671Z,10.30
2018-09-28T00:55:53.241Z,10.30
2018-09-28T00:58:21.520Z,10.20
2018-09-28T01:00:49.820Z,10.30
2018-09-28T01:03:18.319Z,10.30
2018-09-28T01:05:46.837Z,10.20
2018-09-28T01:08:15.547Z,10.30
2018-09-28T01:10:44.243Z,10.20
2018-09-28T01:13:12.745Z,10.20
2018-09-28T01:15:41.041Z,10.30
2018-09-28T01:18:09.340Z,10.30
2018-09-28T01:20:37.956Z,10.20
2018-09-28T01:23:06.794Z,10.10
2018-09-28T01:25:35.835Z,10.10
2018-09-28T01:28:04.624Z,10.10
2018-09-28T01:30:32.920Z,10.10
2018-09-28T01:33:01.348Z,10.10
2018-09-28T01:35:29.761Z,10.10
2018-09-28T01:37:58.214Z,10.00
2018-09-28T01:40:26.532Z,10.00
2018-09-28T01:42:55.105Z,9.90
2018-09-28T01:45:23.569Z,10.10
2018-09-28T01:47:51.989Z,10.00
2018-09-28T01:50:20.254Z,10.00
2018-09-28T01:52:48.548Z,9.90
2018-09-28T01:55:17.008Z,9.90
2018-09-28T01:57:45.392Z,10.00
2018-09-28T02:00:13.980Z,9.90
2018-09-28T02:02:42.746Z,9.90
2018-09-28T02:05:11.337Z,9.90
2018-09-28T02:07:39.681Z,9.80
2018-09-28T02:10:07.970Z,9.80
2018-09-28T02:12:36.281Z,9.80
2018-09-28T02:15:05.156Z,9.70
2018-09-28T02:17:33.596Z,9.70
2018-09-28T02:20:02.232Z,9.70
2018-09-28T02:22:30.757Z,9.60
2018-09-28T02:24:59.033Z,9.60
2018-09-28T02:27:27.573Z,9.60
2018-09-28T02:29:56.160Z,9.50
2018-09-28T02:32:24.456Z,9.50
2018-09-28T02:34:52.912Z,9.50
2018-09-28T02:37:21.244Z,9.50
2018-09-28T02:39:49.813Z,9.60
2018-09-28T02:42:18.112Z,9.60
2018-09-28T02:44:46.435Z,9.60
2018-09-28T02:47:15.131Z,9.60
2018-09-28T02:49:43.698Z,9.50
2018-09-28T02:52:12.449Z,9.50
2018-09-28T02:54:40.856Z,9.50
2018-09-28T02:57:09.405Z,9.50
2018-09-28T02:59:37.918Z,9.60
2018-09-28T03:02:05.904Z,9.60
2018-09-28T03:04:34.461Z,9.60
2018-09-28T03:07:02.751Z,9.60
2018-09-28T03:09:31.500Z,9.70
2018-09-28T03:11:59.952Z,9.70
2018-09-28T03:14:28.247Z,9.70
2018-09-28T03:16:56.737Z,9.60
2018-09-28T03:19:25.287Z,9.50
2018-09-28T03:21:53.803Z,9.50
2018-09-28T03:24:22.223Z,9.50
2018-09-28T03:26:50.525Z,9.40
2018-09-28T03:29:18.856Z,9.40
2018-09-28T03:31:47.325Z,9.50
2018-09-28T03:34:15.917Z,9.40
2018-09-28T03:36:44.269Z,9.40
2018-09-28T03:39:12.651Z,9.40
2018-09-28T03:41:41.229Z,9.40
2018-09-28T03:44:09.885Z,9.30
2018-09-28T03:46:38.516Z,9.30
2018-09-28T03:49:07.052Z,9.20
2018-09-28T03:51:35.375Z,9.20
2018-09-28T03:54:03.719Z,9.20
2018-09-28T03:56:32.011Z,9.10
2018-09-28T03:59:00.625Z,9.10
2018-09-28T04:01:29.431Z,9.10
2018-09-28T04:03:58.107Z,9.10
2018-09-28T04:06:26.484Z,9.10
2018-09-28T04:08:54.996Z,9.10
2018-09-28T04:11:23.512Z,9.30
2018-09-28T04:13:51.910Z,9.30
2018-09-28T04:16:20.531Z,9.40
2018-09-28T04:18:48.931Z,9.40
2018-09-28T04:21:17.329Z,9.40
2018-09-28T04:23:45.609Z,9.40
2018-09-28T04:26:14.060Z,9.30
2018-09-28T04:28:42.600Z,9.20
2018-09-28T04:31:11.257Z,9.30
2018-09-28T04:33:39.877Z,9.30
2018-09-28T04:36:10.181Z,9.10
2018-09-28T04:38:38.693Z,9.20
2018-09-28T04:41:07.492Z,9.20
2018-09-28T04:43:36.049Z,9.30
2018-09-28T04:46:04.324Z,9.30
2018-09-28T04:48:32.650Z,9.30
2018-09-28T04:51:00.996Z,9.30
2018-09-28T04:53:30.408Z,9.30
2018-09-28T04:55:59.009Z,9.20
2018-09-28T04:58:27.503Z,9.30
2018-09-28T05:00:55.767Z,9.30
2018-09-28T05:03:24.277Z,9.30
2018-09-28T05:05:52.577Z,9.40
2018-09-28T05:08:20.847Z,9.30
2018-09-28T05:10:49.379Z,9.30
2018-09-28T05:13:17.726Z,9.40
2018-09-28T05:15:46.002Z,9.40
2018-09-28T05:18:14.296Z,9.60
2018-09-28T05:20:42.574Z,9.70
2018-09-28T05:23:11.116Z,9.80
2018-09-28T05:25:39.687Z,9.80
2018-09-28T05:28:08.345Z,9.90
2018-09-28T05:30:44.967Z,9.90
2018-09-28T05:33:05.641Z,10.00
2018-09-28T05:35:34.137Z,10.00
2018-09-28T05:38:02.478Z,10.00
2018-09-28T05:40:31.074Z,10.00
2018-09-28T05:42:59.634Z,9.90
2018-09-28T05:45:27.915Z,10.00
2018-09-28T05:47:56.201Z,10.10
2018-09-28T05:50:24.869Z,10.20
2018-09-28T05:52:53.421Z,10.30
2018-09-28T05:55:22.052Z,10.30
2018-09-28T05:57:52.420Z,10.30
2018-09-28T06:00:25.955Z,10.30
2018-09-28T06:03:00.069Z,10.40
2018-09-28T06:05:33.271Z,10.40
2018-09-28T06:08:02.418Z,10.60
2018-09-28T06:10:31.151Z,10.70
2018-09-28T06:12:59.444Z,10.80
2018-09-28T06:15:27.865Z,10.80
2018-09-28T06:17:56.226Z,10.90
2018-09-28T06:20:24.878Z,11.00
2018-09-28T06:22:53.410Z,11.10
2018-09-28T06:25:22.391Z,11.20
2018-09-28T06:27:51.261Z,11.30
2018-09-28T06:30:19.997Z,11.40
2018-09-28T06:32:48.395Z,11.60
2018-09-28T06:35:16.980Z,11.70
2018-09-28T06:37:45.366Z,11.90
2018-09-28T06:40:14.075Z,12.40
2018-09-28T06:42:42.399Z,13.30
2018-09-28T06:45:10.744Z,14.40
2018-09-28T06:47:39.238Z,15.30
2018-09-28T06:50:07.604Z,16.00
2018-09-28T06:52:35.894Z,16.20
2018-09-28T06:55:04.515Z,16.40
2018-09-28T06:57:33.089Z,16.90
2018-09-28T07:00:01.759Z,17.00
2018-09-28T07:02:30.167Z,17.30
2018-09-28T07:04:58.542Z,17.70
2018-09-28T07:07:27.048Z,18.00
2018-09-28T07:09:55.603Z,18.40
2018-09-28T07:12:24.191Z,18.70
2018-09-28T07:14:52.571Z,19.00
2018-09-28T07:17:20.855Z,19.30
2018-09-28T07:19:49.512Z,19.50
2018-09-28T07:22:18.110Z,19.50
2018-09-28T07:24:46.662Z,19.80
2018-09-28T07:27:15.609Z,20.00
2018-09-28T07:29:43.944Z,20.00
2018-09-28T07:32:12.467Z,20.30
2018-09-28T07:34:40.924Z,20.80
2018-09-28T07:37:10.027Z,20.90
2018-09-28T07:39:38.679Z,21.20
2018-09-28T07:42:07.559Z,21.30
2018-09-28T07:44:36.041Z,21.00
2018-09-28T07:47:04.740Z,21.30
2018-09-28T07:49:33.296Z,21.30
2018-09-28T07:52:01.594Z,21.70
2018-09-28T07:54:29.873Z,21.60
2018-09-28T07:56:58.415Z,22.00
2018-09-28T07:59:26.931Z,22.20
2018-09-28T08:01:55.620Z,22.80
2018-09-28T08:04:24.394Z,22.90
2018-09-28T08:06:52.728Z,23.50
2018-09-28T08:09:21.285Z,23.80
2018-09-28T08:11:49.835Z,23.70
2018-09-28T08:14:18.380Z,23.90
2018-09-28T08:16:46.978Z,24.10
2018-09-28T08:19:15.265Z,24.40
2018-09-28T08:21:43.834Z,24.70
2018-09-28T08:24:12.113Z,24.70
2018-09-28T08:26:41.403Z,24.90
2018-09-28T08:29:10.283Z,25.00
2018-09-28T08:31:39.033Z,25.50
2018-09-28T08:34:07.331Z,25.30
2018-09-28T08:36:35.922Z,25.20
2018-09-28T08:39:06.151Z,25.40
2018-09-28T08:41:34.423Z,25.50
2018-09-28T08:44:02.987Z,25.80
2018-09-28T08:46:31.275Z,25.70
2018-09-28T08:48:59.536Z,26.20
2018-09-28T08:51:27.824Z,26.30
2018-09-28T08:53:56.264Z,26.40
2018-09-28T08:56:24.537Z,25.40
2018-09-28T08:58:53.361Z,24.60
2018-09-28T09:01:21.660Z,23.50
2018-09-28T09:03:49.944Z,23.00
2018-09-28T09:06:18.276Z,22.50
2018-09-28T09:08:46.623Z,22.30
2018-09-28T09:11:15.436Z,22.20
2018-09-28T09:13:44.003Z,22.20
2018-09-28T09:16:12.538Z,22.40
2018-09-28T09:18:41.263Z,22.50
2018-09-28T09:21:09.579Z,22.70
2018-09-28T09:23:37.849Z,22.70
2018-09-28T09:26:06.576Z,22.70
2018-09-28T09:28:34.890Z,22.60
2018-09-28T09:31:03.459Z,23.00
2018-09-28T09:33:31.724Z,23.00
2018-09-28T09:36:00.062Z,23.20
2018-09-28T09:38:28.344Z,23.40
2018-09-28T09:40:56.665Z,23.50
2018-09-28T09:43:25.260Z,23.90
2018-09-28T09:45:54.059Z,24.00
2018-09-28T09:48:22.420Z,24.40
2018-09-28T09:50:50.880Z,24.60
2018-09-28T09:53:19.144Z,25.30
2018-09-28T09:55:47.448Z,26.00
2018-09-28T09:58:16.169Z,26.60
2018-09-28T10:00:50.152Z,27.40
2018-09-28T10:03:24.282Z,28.00
2018-09-28T10:05:53.199Z,28.40
2018-09-28T10:08:21.487Z,28.60
2018-09-28T10:10:49.819Z,28.80
2018-09-28T10:13:18.484Z,29.60
2018-09-28T10:15:46.792Z,29.60
2018-09-28T10:18:15.428Z,29.50
2018-09-28T10:20:43.791Z,29.00
2018-09-28T10:23:12.199Z,28.40
2018-09-28T10:25:41.172Z,28.20
2018-09-28T10:28:09.948Z,27.90
2018-09-28T10:30:38.324Z,26.90
2018-09-28T10:33:07.039Z,26.60
2018-09-28T10:35:35.837Z,26.50
2018-09-28T10:38:04.792Z,26.60
2018-09-28T10:40:33.188Z,26.80
2018-09-28T10:43:01.671Z,26.90
2018-09-28T10:45:31.004Z,26.90
2018-09-28T10:47:59.287Z,26.70
2018-09-28T10:50:27.566Z,26.80
2018-09-28T10:52:56.071Z,27.00
2018-09-28T10:55:24.489Z,27.00
2018-09-28T10:57:52.767Z,27.10
2018-09-28T11:00:21.173Z,27.50
2018-09-28T11:02:49.638Z,27.70
2018-09-28T11:05:17.959Z,28.20
2018-09-28T11:07:46.224Z,28.30
2018-09-28T11:10:14.845Z,29.00
2018-09-28T11:12:43.492Z,29.30
2018-09-28T11:15:12.083Z,30.20
2018-09-28T11:17:40.531Z,31.10
2018-09-28T11:20:09.023Z,31.00
2018-09-28T11:22:37.467Z,31.00
2018-09-28T11:25:05.920Z,31.80
2018-09-28T11:27:34.286Z,32.10
2018-09-28T11:30:03.487Z,32.00
2018-09-28T11:32:32.097Z,31.30
2018-09-28T11:35:00.666Z,30.30
2018-09-28T11:37:29.299Z,29.60
2018-09-28T11:39:57.874Z,29.60
2018-09-28T11:42:26.151Z,30.30
2018-09-28T11:44:54.756Z,30.60
2018-09-28T11:47:23.123Z,30.10
2018-09-28T11:49:51.394Z,28.80
2018-09-28T11:52:19.673Z,29.30
2018-09-28T11:54:48.218Z,29.60
2018-09-28T11:57:16.546Z,29.40
2018-09-28T11:59:46.110Z,27.80
2018-09-28T12:02:14.532Z,26.30
2018-09-28T12:04:42.811Z,25.20
2018-09-28T12:07:11.411Z,25.00
2018-09-28T12:09:40.018Z,25.20
2018-09-28T12:12:08.499Z,24.60
2018-09-28T12:14:36.951Z,24.20
2018-09-28T12:17:06.766Z,25.20
2018-09-28T12:19:35.742Z,26.80
2018-09-28T12:22:05.085Z,28.20
2018-09-28T12:24:34.571Z,29.30
2018-09-28T12:27:03.923Z,29.80
2018-09-28T12:29:33.022Z,30.30
2018-09-28T12:32:01.354Z,30.50
2018-09-28T12:34:29.636Z,30.50
2018-09-28T12:36:57.927Z,31.00
2018-09-28T12:39:26.638Z,30.80
2018-09-28T12:41:55.217Z,31.00
2018-09-28T12:44:23.707Z,30.70
2018-09-28T12:46:52.179Z,29.50
2018-09-28T12:49:20.483Z,28.60
2018-09-28T12:51:49.210Z,27.90
2018-09-28T12:54:17.535Z,27.90
2018-09-28T12:56:46.232Z,28.60
2018-09-28T12:59:14.922Z,28.60
2018-09-28T13:01:43.271Z,28.30
2018-09-28T13:04:16.920Z,28.00
2018-09-28T13:06:46.231Z,27.90
2018-09-28T13:09:14.995Z,28.10
2018-09-28T13:11:43.411Z,27.10
2018-09-28T13:14:11.986Z,26.10
2018-09-28T13:16:40.816Z,25.20
2018-09-28T13:19:09.383Z,24.60
2018-09-28T13:21:37.927Z,24.00
2018-09-28T13:24:06.882Z,23.90
2018-09-28T13:26:35.475Z,23.60
2018-09-28T13:29:03.772Z,23.40
2018-09-28T13:31:32.229Z,23.10
2018-09-28T13:34:00.501Z,22.90
2018-09-28T13:36:28.867Z,23.10
2018-09-28T13:38:57.815Z,23.20
2018-09-28T13:41:26.553Z,23.60
2018-09-28T13:43:55.690Z,23.50
2018-09-28T13:46:24.255Z,23.50
2018-09-28T13:48:52.787Z,23.30
2018-09-28T13:51:21.655Z,23.30
2018-09-28T13:53:50.809Z,23.20
2018-09-28T13:56:19.496Z,23.20
2018-09-28T13:58:48.013Z,23.40
2018-09-28T14:01:16.417Z,23.60
2018-09-28T14:03:45.027Z,24.40
2018-09-28T14:06:16.835Z,25.40
2018-09-28T14:08:45.289Z,26.40
2018-09-28T14:11:14.122Z,26.70
2018-09-28T14:13:42.437Z,26.40
2018-09-28T14:16:11.027Z,26.10
2018-09-28T14:18:39.495Z,26.30
2018-09-28T14:21:08.251Z,27.00
2018-09-28T14:23:36.698Z,27.40
2018-09-28T14:26:05.309Z,27.40
2018-09-28T14:28:33.894Z,27.50
2018-09-28T14:31:02.594Z,27.40
2018-09-28T14:33:31.175Z,27.20
2018-09-28T14:35:59.480Z,26.70
2018-09-28T14:38:27.927Z,25.90
2018-09-28T14:40:56.787Z,25.20
2018-09-28T14:43:25.394Z,24.90
2018-09-28T14:45:53.962Z,25.30
2018-09-28T14:48:22.340Z,26.20
2018-09-28T14:50:50.899Z,26.60
2018-09-28T14:53:19.259Z,26.90
2018-09-28T14:55:47.685Z,26.50
2018-09-28T14:58:16.039Z,26.60
2018-09-28T15:00:44.521Z,26.70
2018-09-28T15:03:12.924Z,26.50
2018-09-28T15:05:41.475Z,26.00
2018-09-28T15:08:10.034Z,25.50
2018-09-28T15:10:38.567Z,24.90
2018-09-28T15:13:07.603Z,24.60
2018-09-28T15:15:35.883Z,24.10
2018-09-28T15:18:04.947Z,23.50
2018-09-28T15:20:33.240Z,23.00
2018-09-28T15:23:01.505Z,22.20
2018-09-28T15:25:30.055Z,21.80
2018-09-28T15:27:58.648Z,21.40
2018-09-28T15:30:28.387Z,20.80
2018-09-28T15:32:56.701Z,21.10
2018-09-28T15:35:25.558Z,20.90
2018-09-28T15:37:54.058Z,20.60
2018-09-28T15:40:22.614Z,20.40
2018-09-28T15:42:51.122Z,20.30
2018-09-28T15:45:19.421Z,20.20
2018-09-28T15:47:48.015Z,20.20
2018-09-28T15:50:16.593Z,20.00
2018-09-28T15:52:44.863Z,19.90
2018-09-28T15:55:13.424Z,19.70
2018-09-28T15:57:41.743Z,19.70
2018-09-28T16:00:10.382Z,19.60
2018-09-28T16:02:38.655Z,19.60
2018-09-28T16:05:07.633Z,19.50
2018-09-28T16:07:35.931Z,19.50
2018-09-28T16:10:04.249Z,19.40
2018-09-28T16:12:32.799Z,19.30
2018-09-28T16:15:01.309Z,19.20
2018-09-28T16:17:29.593Z,19.10
2018-09-28T16:19:57.926Z,19.00
2018-09-28T16:22:26.267Z,18.90
2018-09-28T16:24:54.787Z,18.80
2018-09-28T16:27:23.081Z,18.70
2018-09-28T16:29:51.357Z,18.60
2018-09-28T16:32:19.618Z,18.60
2018-09-28T16:34:48.077Z,18.50
2018-09-28T16:37:16.528Z,18.30
2018-09-28T16:39:44.816Z,18.30
2018-09-28T16:42:13.089Z,18.20
2018-09-28T16:44:41.638Z,18.10
2018-09-28T16:47:09.925Z,17.90
2018-09-28T16:49:38.228Z,17.80
2018-09-28T16:52:06.789Z,17.70
2018-09-28T16:54:36.317Z,17.60
2018-09-28T16:57:05.589Z,17.50
2018-09-28T16:59:34.126Z,17.50
2018-09-28T17:02:02.401Z,17.50
2018-09-28T17:04:30.691Z,17.30
2018-09-28T17:06:59.220Z,17.20
2018-09-28T17:09:27.776Z,17.10
2018-09-28T17:11:56.064Z,17.00
2018-09-28T17:14:24.537Z,16.90
2018-09-28T17:16:52.799Z,16.90
2018-09-28T17:19:21.113Z,16.80
2018-09-28T17:21:49.599Z,16.80
2018-09-28T17:24:18.192Z,16.70
2018-09-28T17:26:46.512Z,16.70
2018-09-28T17:29:15.092Z,16.70
2018-09-28T17:31:43.577Z,16.70
2018-09-28T17:34:11.945Z,16.80
2018-09-28T17:36:40.691Z,16.80
2018-09-28T17:39:10.547Z,16.90
2018-09-28T17:41:39.420Z,17.00
2018-09-28T17:44:08.540Z,17.00
2018-09-28T17:46:36.869Z,17.00
2018-09-28T17:49:06.032Z,17.00
2018-09-28T17:51:34.909Z,17.10
2018-09-28T17:54:03.607Z,17.00
2018-09-28T17:56:32.295Z,17.00
2018-09-28T17:59:00.564Z,16.90
2018-09-28T18:01:28.840Z,16.90
2018-09-28T18:03:57.306Z,16.80
2018-09-28T18:06:25.611Z,16.70
2018-09-28T18:08:54.172Z,16.50
2018-09-28T18:11:22.457Z,16.40
2018-09-28T18:13:50.863Z,16.30
2018-09-28T18:16:19.279Z,16.20
2018-09-28T18:18:48.229Z,16.20
2018-09-28T18:21:16.987Z,16.10
2018-09-28T18:23:45.472Z,16.10
2018-09-28T18:26:13.764Z,16.00
2018-09-28T18:28:42.116Z,15.90
2018-09-28T18:31:10.397Z,15.90
2018-09-28T18:33:38.999Z,15.90
2018-09-28T18:36:07.805Z,15.80
2018-09-28T18:38:36.426Z,15.70
2018-09-28T18:41:04.966Z,15.60
2018-09-28T18:43:34.112Z,15.50
2018-09-28T18:46:02.504Z,15.50
2018-09-28T18:48:30.852Z,15.40
2018-09-28T18:50:59.467Z,15.40
2018-09-28T18:53:28.112Z,15.40
2018-09-28T18:55:56.832Z,15.50
2018-09-28T18:58:25.800Z,15.40
2018-09-28T19:00:54.175Z,15.50
2018-09-28T19:03:22.681Z,15.40
2018-09-28T19:05:51.390Z,15.30
2018-09-28T19:08:19.948Z,15.20
2018-09-28T19:10:48.403Z,15.10
2018-09-28T19:13:16.979Z,15.10
2018-09-28T19:15:45.247Z,15.00
2018-09-28T19:18:13.544Z,15.10
2018-09-28T19:20:41.886Z,15.00
2018-09-28T19:23:10.217Z,14.90
2018-09-28T19:25:38.845Z,14.80
2018-09-28T19:28:07.215Z,14.80
2018-09-28T19:30:35.784Z,14.80
2018-09-28T19:33:04.083Z,14.90
2018-09-28T19:35:32.363Z,14.80
2018-09-28T19:38:00.939Z,14.90
2018-09-28T19:40:29.620Z,15.00
2018-09-28T19:42:58.423Z,15.00
2018-09-28T19:45:26.723Z,15.00
2018-09-28T19:47:55.288Z,15.00
2018-09-28T19:50:23.839Z,15.00
2018-09-28T19:52:52.131Z,15.00
2018-09-28T19:55:20.681Z,15.00
2018-09-28T19:57:49.039Z,15.00
2018-09-28T20:00:18.045Z,14.90
2018-09-28T20:02:46.517Z,14.80
2018-09-28T20:05:15.112Z,14.70
2018-09-28T20:07:43.483Z,14.60
2018-09-28T20:10:12.608Z,14.60
2018-09-28T20:12:41.173Z,14.60
2018-09-28T20:15:09.440Z,14.60
2018-09-28T20:17:37.995Z,14.60
2018-09-28T20:20:06.905Z,14.50
2018-09-28T20:22:35.473Z,14.50
2018-09-28T20:25:03.994Z,14.50
2018-09-28T20:27:32.479Z,14.40
2018-09-28T20:30:01.052Z,14.30
2018-09-28T20:32:29.600Z,14.10
2018-09-28T20:34:58.009Z,14.10
2018-09-28T20:37:26.607Z,14.00
2018-09-28T20:39:55.071Z,13.90
2018-09-28T20:42:23.443Z,13.90
2018-09-28T20:44:52.171Z,13.90
2018-09-28T20:47:20.763Z,13.70
2018-09-28T20:49:49.201Z,13.60
2018-09-28T20:52:17.540Z,13.50
2018-09-28T20:54:46.128Z,13.50
2018-09-28T20:57:14.411Z,13.40
2018-09-28T20:59:42.995Z,13.40
2018-09-28T21:02:11.491Z,13.40
2018-09-28T21:04:40.084Z,13.40
2018-09-28T21:07:08.366Z,13.40
2018-09-28T21:09:36.812Z,13.40
2018-09-28T21:12:05.389Z,13.30
2018-09-28T21:14:34.247Z,13.30
2018-09-28T21:17:02.543Z,13.30
2018-09-28T21:19:30.851Z,13.20
2018-09-28T21:21:59.258Z,13.20
2018-09-28T21:24:27.912Z,13.10
2018-09-28T21:26:56.432Z,13.10
2018-09-28T21:29:24.713Z,13.00
2018-09-28T21:31:53.142Z,13.00
2018-09-28T21:34:21.680Z,13.00
2018-09-28T21:36:50.108Z,12.90
2018-09-28T21:39:18.450Z,12.90
2018-09-28T21:41:46.740Z,12.90
2018-09-28T21:44:15.034Z,12.90
2018-09-28T21:46:43.393Z,12.80
2018-09-28T21:49:11.739Z,12.80
2018-09-28T21:51:40.003Z,12.70
2018-09-28T21:54:08.279Z,12.80
2018-09-28T21:56:36.555Z,12.70
2018-09-28T21:59:04.999Z,12.70
2018-09-28T22:01:33.308Z,12.70
2018-09-28T22:04:01.584Z,12.60
2018-09-28T22:06:29.924Z,12.60
2018-09-28T22:08:58.244Z,12.50
2018-09-28T22:11:26.522Z,12.50
2018-09-28T22:13:54.874Z,12.40
2018-09-28T22:16:23.605Z,12.30
2018-09-28T22:18:52.151Z,12.30
2018-09-28T22:21:21.082Z,12.30
2018-09-28T22:23:49.372Z,12.20
2018-09-28T22:26:17.740Z,12.10
2018-09-28T22:28:46.122Z,12.20
2018-09-28T22:31:14.430Z,12.10
2018-09-28T22:33:43.019Z,12.20
2018-09-28T22:36:11.896Z,12.10
2018-09-28T22:38:40.260Z,12.10
2018-09-28T22:41:08.837Z,12.10
2018-09-28T22:43:37.401Z,12.00
2018-09-28T22:46:06.382Z,12.00
2018-09-28T22:48:34.951Z,11.90
2018-09-28T22:51:03.311Z,11.60
2018-09-28T22:53:31.663Z,11.90
2018-09-28T22:55:59.918Z,11.90
2018-09-28T22:58:28.208Z,11.80
2018-09-28T23:00:56.512Z,11.90
2018-09-28T23:03:25.051Z,11.90
2018-09-28T23:05:53.460Z,11.80
2018-09-28T23:08:21.732Z,11.80
2018-09-28T23:10:49.995Z,11.70
2018-09-28T23:13:18.254Z,11.70
2018-09-28T23:15:46.651Z,11.70
2018-09-28T23:18:15.183Z,11.80
2018-09-28T23:20:43.752Z,11.70
2018-09-28T23:23:12.136Z,11.70
2018-09-28T23:25:40.409Z,11.70
2018-09-28T23:28:08.824Z,11.80
2018-09-28T23:30:37.109Z,11.80
2018-09-28T23:33:05.723Z,11.80
2018-09-28T23:35:33.988Z,11.70
2018-09-28T23:38:02.464Z,11.80
2018-09-28T23:40:30.832Z,11.70
2018-09-28T23:42:59.116Z,11.70
2018-09-28T23:45:27.440Z,11.70
2018-09-28T23:47:55.957Z,11.60
2018-09-28T23:50:24.543Z,11.50
2018-09-28T23:52:53.109Z,11.40
2018-09-28T23:55:21.567Z,11.30
2018-09-28T23:57:50.111Z,11.30
